F/V Oceanis — FHLH — position and weather

sailwx.info

Track history (hours):
 
Tides and Currents Weather Stations Pressure Air Temp Water Temp Dewpoint Dewpoint Depression Visibility Wind Speed Wind Dir Waves Ship Positions

F/V Oceanis

Last reported at 2016-Dec-03 12:25 UTC. Time now 2016-Dec-03 21:53 UTC.
Position N 45°03' W 001°46'.

Type: Other ship. MMSI: 228385000.

Date/timePositionNaut miles runAvg speedWind from/ knotsBaromVisibWave heightAir tempDewpointWater temp
2016-Dec-03 12:25N 45°03' W 001°46'3 1.5
2016-Dec-03 10:13N 45°05' W 001°49'2 2.1
2016-Dec-03 09:29N 45°07' W 001°49'3 0.9
2016-Dec-03 06:13N 45°04' W 001°50'2 1.0
2016-Dec-03 04:08N 45°03' W 001°47'2 2.1
2016-Dec-03 03:15N 45°04' W 001°47'1 0.6
2016-Dec-03 01:21N 45°06' W 001°48'0 0.3
2016-Dec-02 23:30N 45°05' W 001°47'0 0.3
2016-Dec-02 22:18N 45°05' W 001°47'1 0.2
2016-Dec-02 17:33N 45°05' W 001°48'1 0.8
2016-Dec-02 16:33N 45°04' W 001°47'0 0.1
2016-Dec-02 15:33N 45°05' W 001°47'1 1.0
2016-Dec-02 14:27N 45°03' W 001°47'2 1.7
2016-Dec-02 13:32N 45°04' W 001°49'5 2.7
2016-Dec-02 11:33N 44°59' W 001°45'8 7.5
2016-Dec-02 10:33N 44°53' W 001°39'8 8.0
2016-Dec-02 09:33N 44°46' W 001°33'8 8.1
2016-Dec-02 08:33N 44°40' W 001°26'8 8.1
2016-Dec-02 07:33N 44°34' W 001°18'8 8.4
2016-Dec-02 06:33N 44°40' W 001°09'1 0.1
2016-Dec-01 18:08N 44°39' W 001°09'0 0.0
2016-Dec-01 17:33N 44°39' W 001°09'0 0.0
2016-Dec-01 16:33N 44°39' W 001°09'0 0.0
2016-Dec-01 15:33N 44°39' W 001°09'0 0.1
2016-Dec-01 14:33N 44°39' W 001°09'  
2016-Nov-27 03:27N 44°39' W 001°09'5 5.3
2016-Nov-27 02:33N 44°37' W 001°14'4 3.6
2016-Nov-27 01:34N 44°38' W 001°19'8 8.1
2016-Nov-27 00:34N 44°45' W 001°22'8 8.0
2016-Nov-26 23:33N 44°53' W 001°26'  
Track history (hours):
 
Tides and Currents Weather Stations Pressure Air Temp Water Temp Dewpoint Dewpoint Depression Visibility Wind Speed Wind Dir Waves Ship Positions

F/V Oceanis

Last reported at 2016-Dec-03 12:25 UTC. Time now 2016-Dec-03 21:53 UTC.
Position N 45°03' W 001°46'.

Type: Other ship. MMSI: 228385000.

Date/timePositionNaut miles runAvg speedWind from/ knotsBaromVisibWave heightAir tempDewpointWater temp
2016-Dec-03 12:25N 45°03' W 001°46'3 1.5
2016-Dec-03 10:13N 45°05' W 001°49'2 2.1
2016-Dec-03 09:29N 45°07' W 001°49'3 0.9
2016-Dec-03 06:13N 45°04' W 001°50'2 1.0
2016-Dec-03 04:08N 45°03' W 001°47'2 2.1
2016-Dec-03 03:15N 45°04' W 001°47'1 0.6
2016-Dec-03 01:21N 45°06' W 001°48'0 0.3
2016-Dec-02 23:30N 45°05' W 001°47'0 0.3
2016-Dec-02 22:18N 45°05' W 001°47'1 0.2
2016-Dec-02 17:33N 45°05' W 001°48'1 0.8
2016-Dec-02 16:33N 45°04' W 001°47'0 0.1
2016-Dec-02 15:33N 45°05' W 001°47'1 1.0
2016-Dec-02 14:27N 45°03' W 001°47'2 1.7
2016-Dec-02 13:32N 45°04' W 001°49'5 2.7
2016-Dec-02 11:33N 44°59' W 001°45'8 7.5
2016-Dec-02 10:33N 44°53' W 001°39'8 8.0
2016-Dec-02 09:33N 44°46' W 001°33'8 8.1
2016-Dec-02 08:33N 44°40' W 001°26'8 8.1
2016-Dec-02 07:33N 44°34' W 001°18'8 8.4
2016-Dec-02 06:33N 44°40' W 001°09'1 0.1
2016-Dec-01 18:08N 44°39' W 001°09'0 0.0
2016-Dec-01 17:33N 44°39' W 001°09'0 0.0
2016-Dec-01 16:33N 44°39' W 001°09'0 0.0
2016-Dec-01 15:33N 44°39' W 001°09'0 0.1
2016-Dec-01 14:33N 44°39' W 001°09'  
2016-Nov-27 03:27N 44°39' W 001°09'5 5.3
2016-Nov-27 02:33N 44°37' W 001°14'4 3.6
2016-Nov-27 01:34N 44°38' W 001°19'8 8.1
2016-Nov-27 00:34N 44°45' W 001°22'8 8.0
2016-Nov-26 23:33N 44°53' W 001°26'  

Dump ship's entire track history